Wilmington, OH

2:47 AM EDT on September 21, 2014 (GMT -0400)
Airborne | Change Station
CLOSE
Current Station
Airport
Location: Wilmington,
Elevation: 1076 ft
Nearby Weather Stations

Elev 1076 ft 39.42 °N, 83.82 °W | Updated 53 minutes ago

Partly Cloudy
Partly Cloudy
68 °F
Feels Like 68 °F
N
10
Wind Variable Wind from SSW

Today
High -- | Low -- °F
--% Chance of Precip.
Yesterday
High -- | Low -- °F
Precip. -- in
7:22 AM 7:34 PM
Waning Crescent, 8% visible
Pressure 29.87 in
Visibility 10.0 miles
Clouds Clear
Dew Point 63 °F
Humidity 84%
Rainfall 0.00 in
Snow Depth Not available.
UV 0 out of 12
Pollen 5.70 out of 12
Ozone Good
PM2.5 Moderate
Flu Activity Not available.
METAR KILN 210554Z AUTO 20009KT 10SM CLR 20/17 A2989 RMK AO2 SLP113 T02000172 10211 20194 58018

More Conditions Fewer Conditions

Pressure 29.87 in
Visibility 10.0 miles
Clouds Clear
Dew Point 63 °F
Humidity 84%
Rainfall 0.00 in
Snow Depth Not available.
UV 0 out of 12
Pollen 5.70 out of 12
Ozone Good
PM2.5 Moderate
Flu Activity Not available.
METAR KILN 210554Z AUTO 20009KT 10SM CLR 20/17 A2989 RMK AO2 SLP113 T02000172 10211 20194 58018

More Conditions Fewer Conditions

10-Day Weather Forecast

Almanac

Astronomy

Sep. 21, 2014 Rise Set
Actual Time 7:22 AM EDT 7:34 PM EDT
Civil Twilight 6:55 AM EDT 8:00 PM EDT
Nautical Twilight 6:23 AM EDT 8:32 PM EDT
Astronomical Twilight 5:51 AM EDT 9:04 PM EDT
Moon 4:55 AM EDT 6:09 PM EDT
Length of Visible Light 13h 05m
Length of Day
12h 11m
Tomorrow will be 2m 33s shorter.
Waning Crescent, 8% of the Moon is Illuminated
Today
Waning Crescent
Sep 24
New
Oct 1
First Quarter
Oct 8
Full
Oct 15
Last Quarter

Today's Extremes

State Highs State Lows

Community

WunderPhotos

Upload Photos

1,755,098 photos uploaded!

Nearby

Air Quality

  Air Quality AQ Index Pollutant
Yesterday Moderate
PM2.5
Yesterday Good
OZONE
Current Moderate
PM2.5
Current Good
OZONE
Sunday Good
PM2.5
Sunday Good
OZONE
Monday Good
OZONE
Monday Good
PM2.5
Tuesday Moderate
PM2.5
Tuesday Good
OZONE

Snow Depth

Station Depth Elevation
No new snow has been reported.

Earthquake Activity

City Distance Mag. Time & Date
No recent earthquake activity has been reported nearby.
Minimum magnitude displayed is 2.5.

Coastal Water Temperatures

Place Temperature
No Stations Reporting

Nearby Weather Stations